sensor_id;sensor_type;location;lat;lon;timestamp;pressure;altitude;pressure_sealevel;temperature;humidity
6464;BME280;3265;42.694;23.282;2022-07-30T00:01:04;94727.28;;;25.49;51.84
6464;BME280;3265;42.694;23.282;2022-07-30T00:03:31;94729.75;;;25.46;52.73
6464;BME280;3265;42.694;23.282;2022-07-30T00:05:59;94734.78;;;25.47;52.23
6464;BME280;3265;42.694;23.282;2022-07-30T00:08:25;94730.06;;;25.44;52.52
6464;BME280;3265;42.694;23.282;2022-07-30T00:10:52;94729.41;;;25.38;52.02
6464;BME280;3265;42.694;23.282;2022-07-30T00:13:20;94714.50;;;25.29;52.13
6464;BME280;3265;42.694;23.282;2022-07-30T00:15:47;94726.13;;;25.33;52.48
6464;BME280;3265;42.694;23.282;2022-07-30T00:18:14;94724.97;;;25.25;53.27
6464;BME280;3265;42.694;23.282;2022-07-30T00:20:41;94728.31;;;25.31;53.31
6464;BME280;3265;42.694;23.282;2022-07-30T00:23:08;94725.16;;;25.29;53.17
6464;BME280;3265;42.694;23.282;2022-07-30T00:25:35;94722.97;;;25.31;53.45
6464;BME280;3265;42.694;23.282;2022-07-30T00:28:01;94730.47;;;25.29;52.99
6464;BME280;3265;42.694;23.282;2022-07-30T00:30:30;94730.47;;;25.29;52.52
6464;BME280;3265;42.694;23.282;2022-07-30T00:32:57;94715.13;;;25.26;52.96
6464;BME280;3265;42.694;23.282;2022-07-30T00:35:24;94714.81;;;25.27;52.35
6464;BME280;3265;42.694;23.282;2022-07-30T00:37:51;94708.56;;;25.32;52.77
6464;BME280;3265;42.694;23.282;2022-07-30T00:40:18;94702.94;;;25.25;52.69
6464;BME280;3265;42.694;23.282;2022-07-30T00:42:46;94722.34;;;25.34;52.77
6464;BME280;3265;42.694;23.282;2022-07-30T00:45:16;94727.03;;;25.37;52.68
6464;BME280;3265;42.694;23.282;2022-07-30T00:47:45;94715.13;;;25.26;53.02
6464;BME280;3265;42.694;23.282;2022-07-30T00:50:13;94708.88;;;25.22;52.87
6464;BME280;3265;42.694;23.282;2022-07-30T00:52:41;94700.84;;;25.13;53.26
6464;BME280;3265;42.694;23.282;2022-07-30T00:55:10;94713.06;;;25.23;53.46
6464;BME280;3265;42.694;23.282;2022-07-30T00:57:38;94726.34;;;25.14;54.46
6464;BME280;3265;42.694;23.282;2022-07-30T01:00:07;94720.88;;;24.80;56.29
6464;BME280;3265;42.694;23.282;2022-07-30T01:02:34;94707.22;;;24.28;58.78
6464;BME280;3265;42.694;23.282;2022-07-30T01:05:03;94716.53;;;24.17;59.72
6464;BME280;3265;42.694;23.282;2022-07-30T01:07:30;94711.72;;;24.06;60.59
6464;BME280;3265;42.694;23.282;2022-07-30T01:09:57;94701.28;;;24.09;60.34
6464;BME280;3265;42.694;23.282;2022-07-30T01:12:25;94725.88;;;24.01;61.11
6464;BME280;3265;42.694;23.282;2022-07-30T01:14:54;94719.47;;;23.80;62.09
6464;BME280;3265;42.694;23.282;2022-07-30T01:17:22;94705.56;;;23.47;63.79
6464;BME280;3265;42.694;23.282;2022-07-30T01:19:50;94713.41;;;23.52;63.97
6464;BME280;3265;42.694;23.282;2022-07-30T01:22:34;94709.19;;;23.51;63.75
6464;BME280;3265;42.694;23.282;2022-07-30T01:25:11;94710.56;;;23.62;63.87
6464;BME280;3265;42.694;23.282;2022-07-30T01:27:43;94712.50;;;23.70;63.68
6464;BME280;3265;42.694;23.282;2022-07-30T01:30:13;94715.34;;;23.74;64.13
6464;BME280;3265;42.694;23.282;2022-07-30T01:32:41;94715.28;;;23.65;64.13
6464;BME280;3265;42.694;23.282;2022-07-30T01:35:10;94717.63;;;23.53;64.54
6464;BME280;3265;42.694;23.282;2022-07-30T01:37:39;94718.03;;;23.47;64.89
6464;BME280;3265;42.694;23.282;2022-07-30T01:40:08;94718.63;;;23.44;65.18
6464;BME280;3265;42.694;23.282;2022-07-30T01:42:36;94719.41;;;23.44;65.22
6464;BME280;3265;42.694;23.282;2022-07-30T01:45:06;94713.03;;;23.45;64.98
6464;BME280;3265;42.694;23.282;2022-07-30T01:47:36;94721.00;;;23.45;64.43
6464;BME280;3265;42.694;23.282;2022-07-30T01:50:06;94725.81;;;23.43;65.23
6464;BME280;3265;42.694;23.282;2022-07-30T01:52:39;94719.09;;;23.18;66.51
6464;BME280;3265;42.694;23.282;2022-07-30T01:55:08;94718.22;;;22.96;67.74
6464;BME280;3265;42.694;23.282;2022-07-30T01:57:37;94719.78;;;22.97;67.82
6464;BME280;3265;42.694;23.282;2022-07-30T02:00:07;94722.72;;;22.95;68.05
6464;BME280;3265;42.694;23.282;2022-07-30T02:02:34;94714.50;;;22.97;68.02
6464;BME280;3265;42.694;23.282;2022-07-30T02:05:03;94722.94;;;22.99;67.76
6464;BME280;3265;42.694;23.282;2022-07-30T02:07:34;94717.03;;;23.02;68.31
6464;BME280;3265;42.694;23.282;2022-07-30T02:10:06;94717.31;;;23.00;67.93
6464;BME280;3265;42.694;23.282;2022-07-30T02:12:39;94714.78;;;22.95;68.78
6464;BME280;3265;42.694;23.282;2022-07-30T02:15:14;94715.84;;;22.81;69.21
6464;BME280;3265;42.694;23.282;2022-07-30T02:17:47;94708.88;;;22.71;70.37
6464;BME280;3265;42.694;23.282;2022-07-30T02:20:16;94714.53;;;22.65;70.65
6464;BME280;3265;42.694;23.282;2022-07-30T02:22:45;94698.13;;;22.63;71.08
6464;BME280;3265;42.694;23.282;2022-07-30T02:25:14;94707.13;;;22.61;71.51
6464;BME280;3265;42.694;23.282;2022-07-30T02:27:43;94705.50;;;22.66;71.26
6464;BME280;3265;42.694;23.282;2022-07-30T02:30:14;94701.28;;;22.65;71.59
6464;BME280;3265;42.694;23.282;2022-07-30T02:32:42;94690.44;;;22.47;71.72
6464;BME280;3265;42.694;23.282;2022-07-30T02:35:15;94704.66;;;22.51;72.17
6464;BME280;3265;42.694;23.282;2022-07-30T02:37:44;94691.22;;;22.48;72.45
6464;BME280;3265;42.694;23.282;2022-07-30T02:40:14;94696.00;;;22.46;72.11
6464;BME280;3265;42.694;23.282;2022-07-30T02:42:44;94697.84;;;22.45;72.14
6464;BME280;3265;42.694;23.282;2022-07-30T02:45:14;94704.25;;;22.44;72.36
6464;BME280;3265;42.694;23.282;2022-07-30T02:47:42;94700.13;;;22.38;73.31
6464;BME280;3265;42.694;23.282;2022-07-30T02:50:11;94698.03;;;22.35;72.76
6464;BME280;3265;42.694;23.282;2022-07-30T02:52:39;94698.63;;;22.32;72.89
6464;BME280;3265;42.694;23.282;2022-07-30T02:55:08;94707.06;;;22.34;72.90
6464;BME280;3265;42.694;23.282;2022-07-30T02:57:38;94697.81;;;22.32;72.54
6464;BME280;3265;42.694;23.282;2022-07-30T03:00:08;94684.94;;;22.25;72.68
6464;BME280;3265;42.694;23.282;2022-07-30T03:02:38;94677.00;;;22.25;72.29
6464;BME280;3265;42.694;23.282;2022-07-30T03:05:07;94678.88;;;22.25;72.40
6464;BME280;3265;42.694;23.282;2022-07-30T03:07:34;94687.31;;;22.27;73.31
6464;BME280;3265;42.694;23.282;2022-07-30T03:10:02;94690.19;;;22.30;73.25
6464;BME280;3265;42.694;23.282;2022-07-30T03:12:30;94686.75;;;22.30;72.81
6464;BME280;3265;42.694;23.282;2022-07-30T03:14:59;94679.53;;;22.17;72.40
6464;BME280;3265;42.694;23.282;2022-07-30T03:17:27;94690.69;;;22.14;72.71
6464;BME280;3265;42.694;23.282;2022-07-30T03:19:59;94681.47;;;22.11;72.02
6464;BME280;3265;42.694;23.282;2022-07-30T03:22:28;94687.06;;;22.10;72.28
6464;BME280;3265;42.694;23.282;2022-07-30T03:24:56;94689.81;;;22.04;72.73
6464;BME280;3265;42.694;23.282;2022-07-30T03:27:24;94683.97;;;22.02;72.76
6464;BME280;3265;42.694;23.282;2022-07-30T03:29:53;94690.28;;;22.07;73.39
6464;BME280;3265;42.694;23.282;2022-07-30T03:32:21;94689.50;;;22.06;72.77
6464;BME280;3265;42.694;23.282;2022-07-30T03:34:49;94691.94;;;22.02;73.57
6464;BME280;3265;42.694;23.282;2022-07-30T03:37:18;94683.72;;;22.04;73.41
6464;BME280;3265;42.694;23.282;2022-07-30T03:39:45;94693.94;;;22.11;73.79
6464;BME280;3265;42.694;23.282;2022-07-30T03:42:14;94698.50;;;22.05;74.30
6464;BME280;3265;42.694;23.282;2022-07-30T03:44:42;94700.38;;;22.04;74.51
6464;BME280;3265;42.694;23.282;2022-07-30T03:47:11;94703.63;;;22.01;74.47
6464;BME280;3265;42.694;23.282;2022-07-30T03:49:40;94701.81;;;21.97;74.62
6464;BME280;3265;42.694;23.282;2022-07-30T03:52:07;94707.91;;;21.97;75.22
6464;BME280;3265;42.694;23.282;2022-07-30T03:54:36;94709.03;;;22.10;74.91
6464;BME280;3265;42.694;23.282;2022-07-30T03:57:04;94704.72;;;22.14;74.08
6464;BME280;3265;42.694;23.282;2022-07-30T03:59:32;94703.22;;;22.08;73.48
6464;BME280;3265;42.694;23.282;2022-07-30T04:01:59;94709.84;;;22.11;73.46
6464;BME280;3265;42.694;23.282;2022-07-30T04:04:27;94720.69;;;22.09;73.38
6464;BME280;3265;42.694;23.282;2022-07-30T04:06:54;94711.75;;;22.05;74.36
6464;BME280;3265;42.694;23.282;2022-07-30T04:09:22;94708.47;;;21.94;74.48
6464;BME280;3265;42.694;23.282;2022-07-30T04:11:51;94710.75;;;22.01;74.38
6464;BME280;3265;42.694;23.282;2022-07-30T04:14:17;94696.88;;;21.90;74.52
6464;BME280;3265;42.694;23.282;2022-07-30T04:16:46;94711.56;;;22.01;74.81
6464;BME280;3265;42.694;23.282;2022-07-30T04:19:20;94691.34;;;21.87;74.81
6464;BME280;3265;42.694;23.282;2022-07-30T04:21:49;94720.25;;;22.02;75.09
6464;BME280;3265;42.694;23.282;2022-07-30T04:24:17;94725.56;;;22.02;75.69
6464;BME280;3265;42.694;23.282;2022-07-30T04:26:46;94720.69;;;22.09;74.90
6464;BME280;3265;42.694;23.282;2022-07-30T04:29:15;94697.31;;;21.97;75.03
6464;BME280;3265;42.694;23.282;2022-07-30T04:31:42;94716.69;;;22.12;74.78
6464;BME280;3265;42.694;23.282;2022-07-30T04:34:11;94722.41;;;22.19;75.04
6464;BME280;3265;42.694;23.282;2022-07-30T04:36:39;94721.03;;;22.21;74.67
6464;BME280;3265;42.694;23.282;2022-07-30T04:39:06;94729.22;;;22.25;73.80
6464;BME280;3265;42.694;23.282;2022-07-30T04:41:33;94729.78;;;22.22;74.30
6464;BME280;3265;42.694;23.282;2022-07-30T04:44:00;94733.22;;;22.03;74.98
6464;BME280;3265;42.694;23.282;2022-07-30T04:48:54;94724.91;;;21.91;75.17
6464;BME280;3265;42.694;23.282;2022-07-30T04:51:24;94730.72;;;21.93;75.07
6464;BME280;3265;42.694;23.282;2022-07-30T04:53:52;94730.53;;;21.85;75.42
6464;BME280;3265;42.694;23.282;2022-07-30T04:56:20;94725.75;;;21.87;75.33
6464;BME280;3265;42.694;23.282;2022-07-30T04:58:48;94723.78;;;21.97;75.17
6464;BME280;3265;42.694;23.282;2022-07-30T05:01:20;94720.34;;;21.97;74.54
6464;BME280;3265;42.694;23.282;2022-07-30T05:03:50;94709.25;;;21.95;74.54
6464;BME280;3265;42.694;23.282;2022-07-30T05:06:18;94712.75;;;22.09;74.15
6464;BME280;3265;42.694;23.282;2022-07-30T05:08:46;94697.44;;;22.06;73.71
6464;BME280;3265;42.694;23.282;2022-07-30T05:11:13;94716.31;;;22.18;73.90
6464;BME280;3265;42.694;23.282;2022-07-30T05:13:41;94712.09;;;22.17;74.03
6464;BME280;3265;42.694;23.282;2022-07-30T05:16:08;94717.31;;;22.22;74.40
6464;BME280;3265;42.694;23.282;2022-07-30T05:18:36;94717.38;;;22.17;74.53
6464;BME280;3265;42.694;23.282;2022-07-30T05:21:04;94719.47;;;22.20;74.22
6464;BME280;3265;42.694;23.282;2022-07-30T05:23:31;94714.66;;;22.22;75.10
6464;BME280;3265;42.694;23.282;2022-07-30T05:25:59;94707.59;;;22.18;74.86
6464;BME280;3265;42.694;23.282;2022-07-30T05:28:26;94704.72;;;22.33;74.60
6464;BME280;3265;42.694;23.282;2022-07-30T05:30:53;94717.84;;;22.38;74.31
6464;BME280;3265;42.694;23.282;2022-07-30T05:33:20;94709.81;;;22.43;73.66
6464;BME280;3265;42.694;23.282;2022-07-30T05:35:48;94714.97;;;22.53;73.14
6464;BME280;3265;42.694;23.282;2022-07-30T05:38:16;94720.47;;;22.56;73.37
6464;BME280;3265;42.694;23.282;2022-07-30T05:40:43;94715.38;;;22.60;72.58
6464;BME280;3265;42.694;23.282;2022-07-30T05:43:11;94718.16;;;22.69;72.30
6464;BME280;3265;42.694;23.282;2022-07-30T05:45:37;94718.38;;;22.72;72.28
6464;BME280;3265;42.694;23.282;2022-07-30T05:48:05;94719.84;;;22.78;72.05
6464;BME280;3265;42.694;23.282;2022-07-30T05:50:31;94723.00;;;22.80;71.69
6464;BME280;3265;42.694;23.282;2022-07-30T05:52:58;94723.50;;;22.82;71.86
6464;BME280;3265;42.694;23.282;2022-07-30T05:55:26;94724.47;;;22.86;71.76
6464;BME280;3265;42.694;23.282;2022-07-30T05:57:53;94725.69;;;22.94;70.84
6464;BME280;3265;42.694;23.282;2022-07-30T06:00:20;94721.34;;;22.98;70.59
6464;BME280;3265;42.694;23.282;2022-07-30T06:02:47;94727.66;;;23.02;70.91
6464;BME280;3265;42.694;23.282;2022-07-30T06:05:14;94725.19;;;23.05;70.93
6464;BME280;3265;42.694;23.282;2022-07-30T06:07:40;94721.97;;;23.08;70.57
6464;BME280;3265;42.694;23.282;2022-07-30T06:10:07;94726.47;;;23.08;69.60
6464;BME280;3265;42.694;23.282;2022-07-30T06:12:36;94729.50;;;23.15;69.49
6464;BME280;3265;42.694;23.282;2022-07-30T06:15:04;94729.81;;;23.27;69.43
6464;BME280;3265;42.694;23.282;2022-07-30T06:17:30;94732.06;;;23.34;69.03
6464;BME280;3265;42.694;23.282;2022-07-30T06:19:58;94734.66;;;23.39;68.67
6464;BME280;3265;42.694;23.282;2022-07-30T06:22:25;94719.78;;;23.38;68.98
6464;BME280;3265;42.694;23.282;2022-07-30T06:24:52;94732.09;;;23.47;69.45
6464;BME280;3265;42.694;23.282;2022-07-30T06:27:19;94725.69;;;23.62;68.30
6464;BME280;3265;42.694;23.282;2022-07-30T06:29:47;94724.31;;;23.64;67.98
6464;BME280;3265;42.694;23.282;2022-07-30T06:32:14;94714.00;;;23.63;67.39
6464;BME280;3265;42.694;23.282;2022-07-30T06:34:41;94724.19;;;23.69;67.76
6464;BME280;3265;42.694;23.282;2022-07-30T06:37:08;94710.16;;;23.69;67.32
6464;BME280;3265;42.694;23.282;2022-07-30T06:39:36;94714.03;;;23.85;67.48
6464;BME280;3265;42.694;23.282;2022-07-30T06:42:03;94710.75;;;24.02;66.61
6464;BME280;3265;42.694;23.282;2022-07-30T06:44:30;94703.94;;;24.09;65.60
6464;BME280;3265;42.694;23.282;2022-07-30T06:46:58;94709.81;;;24.20;66.16
6464;BME280;3265;42.694;23.282;2022-07-30T06:49:25;94705.97;;;24.26;65.71
6464;BME280;3265;42.694;23.282;2022-07-30T06:51:52;94690.56;;;24.37;70.54
6464;BME280;3265;42.694;23.282;2022-07-30T06:54:19;94700.09;;;24.60;67.98
6464;BME280;3265;42.694;23.282;2022-07-30T06:56:46;94696.56;;;24.73;64.07
6464;BME280;3265;42.694;23.282;2022-07-30T06:59:13;94697.44;;;24.91;64.91
6464;BME280;3265;42.694;23.282;2022-07-30T07:01:40;94688.41;;;25.00;63.03
6464;BME280;3265;42.694;23.282;2022-07-30T07:04:08;94690.66;;;25.07;63.66
6464;BME280;3265;42.694;23.282;2022-07-30T07:06:35;94686.75;;;25.13;62.62
6464;BME280;3265;42.694;23.282;2022-07-30T07:09:02;94686.03;;;25.29;66.98
6464;BME280;3265;42.694;23.282;2022-07-30T07:11:29;94689.09;;;25.54;65.06
6464;BME280;3265;42.694;23.282;2022-07-30T07:13:56;94699.44;;;25.72;62.99
6464;BME280;3265;42.694;23.282;2022-07-30T07:16:23;94686.94;;;25.81;61.82
6464;BME280;3265;42.694;23.282;2022-07-30T07:18:50;94684.91;;;25.87;58.89
6464;BME280;3265;42.694;23.282;2022-07-30T07:21:19;94687.56;;;25.87;59.38
6464;BME280;3265;42.694;23.282;2022-07-30T07:23:46;94681.94;;;25.97;62.02
6464;BME280;3265;42.694;23.282;2022-07-30T07:26:14;94681.59;;;26.07;60.41
6464;BME280;3265;42.694;23.282;2022-07-30T07:28:41;94685.53;;;26.10;58.26
6464;BME280;3265;42.694;23.282;2022-07-30T07:31:09;94686.16;;;26.24;63.43
6464;BME280;3265;42.694;23.282;2022-07-30T07:33:36;94691.63;;;26.44;63.44
6464;BME280;3265;42.694;23.282;2022-07-30T07:36:05;94687.22;;;26.57;61.10
6464;BME280;3265;42.694;23.282;2022-07-30T07:38:33;94687.34;;;26.69;57.70
6464;BME280;3265;42.694;23.282;2022-07-30T07:41:01;94686.88;;;26.67;57.55
6464;BME280;3265;42.694;23.282;2022-07-30T07:43:28;94690.34;;;26.59;57.28
6464;BME280;3265;42.694;23.282;2022-07-30T07:45:54;94685.34;;;26.58;56.77
6464;BME280;3265;42.694;23.282;2022-07-30T07:48:21;94688.63;;;26.63;57.98
6464;BME280;3265;42.694;23.282;2022-07-30T07:50:48;94690.03;;;26.69;57.56
6464;BME280;3265;42.694;23.282;2022-07-30T07:53:15;94684.06;;;26.72;57.06
6464;BME280;3265;42.694;23.282;2022-07-30T07:55:43;94684.97;;;26.76;55.82
6464;BME280;3265;42.694;23.282;2022-07-30T07:58:10;94682.63;;;26.75;57.10
6464;BME280;3265;42.694;23.282;2022-07-30T08:00:38;94678.53;;;26.77;56.52
6464;BME280;3265;42.694;23.282;2022-07-30T08:03:05;94644.72;;;26.61;57.60
6464;BME280;3265;42.694;23.282;2022-07-30T08:05:31;94664.75;;;26.84;59.71
6464;BME280;3265;42.694;23.282;2022-07-30T08:07:58;94677.38;;;27.04;56.40
6464;BME280;3265;42.694;23.282;2022-07-30T08:10:25;94678.09;;;27.13;60.50
6464;BME280;3265;42.694;23.282;2022-07-30T08:12:54;94672.88;;;27.25;56.03
6464;BME280;3265;42.694;23.282;2022-07-30T08:15:21;94673.16;;;27.32;56.16
6464;BME280;3265;42.694;23.282;2022-07-30T08:17:48;94675.03;;;27.32;54.58
6464;BME280;3265;42.694;23.282;2022-07-30T08:20:15;94660.47;;;27.29;55.09
6464;BME280;3265;42.694;23.282;2022-07-30T08:22:42;94676.88;;;27.40;53.27
6464;BME280;3265;42.694;23.282;2022-07-30T08:25:09;94671.72;;;27.43;52.56
6464;BME280;3265;42.694;23.282;2022-07-30T08:27:36;94666.19;;;27.48;52.26
6464;BME280;3265;42.694;23.282;2022-07-30T08:30:07;94665.53;;;27.51;53.08
6464;BME280;3265;42.694;23.282;2022-07-30T08:32:34;94662.16;;;27.63;55.83
6464;BME280;3265;42.694;23.282;2022-07-30T08:35:02;94666.22;;;27.69;51.54
6464;BME280;3265;42.694;23.282;2022-07-30T08:37:29;94660.88;;;27.69;54.81
6464;BME280;3265;42.694;23.282;2022-07-30T08:39:56;94666.09;;;27.86;56.69
6464;BME280;3265;42.694;23.282;2022-07-30T08:42:23;94654.09;;;27.92;55.73
6464;BME280;3265;42.694;23.282;2022-07-30T08:44:51;94660.16;;;28.01;52.69
6464;BME280;3265;42.694;23.282;2022-07-30T08:47:22;94650.50;;;28.09;53.60
6464;BME280;3265;42.694;23.282;2022-07-30T08:49:51;94638.44;;;28.03;51.94
6464;BME280;3265;42.694;23.282;2022-07-30T08:52:20;94654.09;;;28.46;51.31
6464;BME280;3265;42.694;23.282;2022-07-30T08:54:47;94647.50;;;28.76;50.24
6464;BME280;3265;42.694;23.282;2022-07-30T08:57:14;94643.53;;;28.94;50.04
6464;BME280;3265;42.694;23.282;2022-07-30T08:59:42;94648.00;;;29.14;49.49
6464;BME280;3265;42.694;23.282;2022-07-30T09:02:09;94641.78;;;29.22;47.25
6464;BME280;3265;42.694;23.282;2022-07-30T09:04:37;94640.44;;;29.41;47.41
6464;BME280;3265;42.694;23.282;2022-07-30T09:07:04;94643.00;;;29.49;45.67
6464;BME280;3265;42.694;23.282;2022-07-30T09:09:30;94631.03;;;29.47;45.26
6464;BME280;3265;42.694;23.282;2022-07-30T09:11:58;94632.81;;;29.55;45.95
6464;BME280;3265;42.694;23.282;2022-07-30T09:14:25;94623.63;;;29.68;47.17
6464;BME280;3265;42.694;23.282;2022-07-30T09:16:55;94621.91;;;29.88;46.77
6464;BME280;3265;42.694;23.282;2022-07-30T09:19:23;94624.25;;;30.01;44.96
6464;BME280;3265;42.694;23.282;2022-07-30T09:21:57;94619.25;;;30.15;44.80
6464;BME280;3265;42.694;23.282;2022-07-30T09:24:24;94617.38;;;30.31;45.36
6464;BME280;3265;42.694;23.282;2022-07-30T09:26:54;94630.88;;;30.47;44.23
6464;BME280;3265;42.694;23.282;2022-07-30T09:29:23;94614.94;;;30.39;44.05
6464;BME280;3265;42.694;23.282;2022-07-30T09:31:55;94618.59;;;30.34;44.36
6464;BME280;3265;42.694;23.282;2022-07-30T09:34:23;94617.97;;;30.53;44.06
6464;BME280;3265;42.694;23.282;2022-07-30T09:36:50;94616.19;;;30.72;43.40
6464;BME280;3265;42.694;23.282;2022-07-30T09:39:29;94614.63;;;30.87;42.21
6464;BME280;3265;42.694;23.282;2022-07-30T09:41:56;94596.09;;;30.82;42.16
6464;BME280;3265;42.694;23.282;2022-07-30T09:44:24;94618.16;;;30.91;42.75
6464;BME280;3265;42.694;23.282;2022-07-30T09:46:52;94611.25;;;31.06;42.33
6464;BME280;3265;42.694;23.282;2022-07-30T09:49:20;94595.03;;;30.86;42.08
6464;BME280;3265;42.694;23.282;2022-07-30T09:51:48;94609.16;;;30.83;43.46
6464;BME280;3265;42.694;23.282;2022-07-30T09:54:15;94601.56;;;31.01;42.25
6464;BME280;3265;42.694;23.282;2022-07-30T09:56:43;94598.88;;;31.17;43.02
6464;BME280;3265;42.694;23.282;2022-07-30T09:59:24;94593.25;;;31.41;41.65
6464;BME280;3265;42.694;23.282;2022-07-30T10:01:52;94597.97;;;31.63;41.96
6464;BME280;3265;42.694;23.282;2022-07-30T10:04:23;94595.03;;;31.87;41.40
6464;BME280;3265;42.694;23.282;2022-07-30T10:06:50;94588.63;;;32.11;39.78
6464;BME280;3265;42.694;23.282;2022-07-30T10:09:25;94584.22;;;32.22;39.49
6464;BME280;3265;42.694;23.282;2022-07-30T10:11:54;94581.69;;;32.29;38.58
6464;BME280;3265;42.694;23.282;2022-07-30T10:14:22;94578.91;;;32.26;39.33
6464;BME280;3265;42.694;23.282;2022-07-30T10:16:50;94584.41;;;32.33;39.11
6464;BME280;3265;42.694;23.282;2022-07-30T10:19:18;94582.41;;;32.49;38.38
6464;BME280;3265;42.694;23.282;2022-07-30T10:21:47;94585.31;;;32.60;38.17
6464;BME280;3265;42.694;23.282;2022-07-30T10:24:15;94573.69;;;32.78;38.01
6464;BME280;3265;42.694;23.282;2022-07-30T10:26:43;94562.78;;;32.94;37.11
6464;BME280;3265;42.694;23.282;2022-07-30T10:29:14;94562.34;;;33.15;37.15
6464;BME280;3265;42.694;23.282;2022-07-30T10:31:41;94561.63;;;33.18;36.82
6464;BME280;3265;42.694;23.282;2022-07-30T10:34:08;94564.84;;;33.27;36.56
6464;BME280;3265;42.694;23.282;2022-07-30T10:36:36;94562.22;;;33.30;35.96
6464;BME280;3265;42.694;23.282;2022-07-30T10:39:07;94562.22;;;33.34;36.31
6464;BME280;3265;42.694;23.282;2022-07-30T10:41:46;94553.06;;;33.38;36.81
6464;BME280;3265;42.694;23.282;2022-07-30T10:44:46;94561.69;;;33.51;36.12
6464;BME280;3265;42.694;23.282;2022-07-30T10:47:18;94548.16;;;33.74;36.73
6464;BME280;3265;42.694;23.282;2022-07-30T10:50:09;94545.19;;;33.82;35.46
6464;BME280;3265;42.694;23.282;2022-07-30T10:52:43;94545.56;;;33.54;35.50
6464;BME280;3265;42.694;23.282;2022-07-30T10:55:14;94538.75;;;33.34;36.53
6464;BME280;3265;42.694;23.282;2022-07-30T10:58:04;94543.34;;;33.60;36.22
6464;BME280;3265;42.694;23.282;2022-07-30T11:00:34;94530.97;;;33.89;36.25
6464;BME280;3265;42.694;23.282;2022-07-30T11:03:19;94535.31;;;34.30;35.15
6464;BME280;3265;42.694;23.282;2022-07-30T11:05:49;94538.56;;;34.09;34.94
6464;BME280;3265;42.694;23.282;2022-07-30T11:08:36;94523.97;;;33.81;35.78
6464;BME280;3265;42.694;23.282;2022-07-30T11:11:05;94524.16;;;33.98;34.74
6464;BME280;3265;42.694;23.282;2022-07-30T11:13:53;94519.19;;;34.37;34.63
6464;BME280;3265;42.694;23.282;2022-07-30T11:16:56;94510.94;;;34.63;33.95
6464;BME280;3265;42.694;23.282;2022-07-30T11:19:13;94515.25;;;34.71;34.76
6464;BME280;3265;42.694;23.282;2022-07-30T11:21:43;94515.25;;;34.71;33.97
6464;BME280;3265;42.694;23.282;2022-07-30T11:24:41;94509.25;;;34.92;33.91
6464;BME280;3265;42.694;23.282;2022-07-30T11:27:09;94498.56;;;35.10;33.31
6464;BME280;3265;42.694;23.282;2022-07-30T11:29:37;94512.16;;;35.24;33.22
6464;BME280;3265;42.694;23.282;2022-07-30T11:32:26;94503.34;;;35.38;33.17
6464;BME280;3265;42.694;23.282;2022-07-30T11:35:15;94510.72;;;35.44;32.91
6464;BME280;3265;42.694;23.282;2022-07-30T11:38:02;94491.91;;;35.58;32.68
6464;BME280;3265;42.694;23.282;2022-07-30T11:40:32;94501.22;;;35.75;32.65
6464;BME280;3265;42.694;23.282;2022-07-30T11:43:20;94494.16;;;35.53;32.13
6464;BME280;3265;42.694;23.282;2022-07-30T11:45:48;94491.38;;;35.35;32.79
6464;BME280;3265;42.694;23.282;2022-07-30T11:48:18;94480.75;;;35.05;33.38
6464;BME280;3265;42.694;23.282;2022-07-30T11:50:46;94479.31;;;34.64;33.64
6464;BME280;3265;42.694;23.282;2022-07-30T11:53:16;94477.44;;;34.71;33.62
6464;BME280;3265;42.694;23.282;2022-07-30T11:55:45;94466.34;;;34.87;33.75
6464;BME280;3265;42.694;23.282;2022-07-30T11:58:28;94475.06;;;35.17;33.80
6464;BME280;3265;42.694;23.282;2022-07-30T12:00:58;94467.78;;;35.36;32.91
6464;BME280;3265;42.694;23.282;2022-07-30T12:03:28;94461.97;;;35.26;32.90
6464;BME280;3265;42.694;23.282;2022-07-30T12:06:02;94457.66;;;35.18;32.71
6464;BME280;3265;42.694;23.282;2022-07-30T12:08:38;94463.81;;;35.15;33.26
6464;BME280;3265;42.694;23.282;2022-07-30T12:11:05;94469.25;;;35.19;33.43
6464;BME280;3265;42.694;23.282;2022-07-30T12:13:33;94458.56;;;35.47;32.56
6464;BME280;3265;42.694;23.282;2022-07-30T12:16:06;94451.00;;;35.81;32.58
6464;BME280;3265;42.694;23.282;2022-07-30T12:18:35;94463.06;;;36.15;32.24
6464;BME280;3265;42.694;23.282;2022-07-30T12:21:03;94456.91;;;36.50;31.45
6464;BME280;3265;42.694;23.282;2022-07-30T12:23:32;94440.66;;;36.68;31.36
6464;BME280;3265;42.694;23.282;2022-07-30T12:25:59;94446.84;;;36.75;30.93
6464;BME280;3265;42.694;23.282;2022-07-30T12:28:28;94439.47;;;36.72;30.88
6464;BME280;3265;42.694;23.282;2022-07-30T12:30:56;94436.03;;;36.65;30.66
6464;BME280;3265;42.694;23.282;2022-07-30T12:33:23;94434.44;;;36.81;31.14
6464;BME280;3265;42.694;23.282;2022-07-30T12:35:53;94423.19;;;36.93;30.78
6464;BME280;3265;42.694;23.282;2022-07-30T12:38:21;94410.81;;;36.82;30.11
6464;BME280;3265;42.694;23.282;2022-07-30T12:40:54;94418.53;;;36.90;30.82
6464;BME280;3265;42.694;23.282;2022-07-30T12:43:40;94408.91;;;36.65;31.22
6464;BME280;3265;42.694;23.282;2022-07-30T12:46:08;94400.41;;;36.45;31.58
6464;BME280;3265;42.694;23.282;2022-07-30T12:48:35;94399.22;;;36.42;31.98
6464;BME280;3265;42.694;23.282;2022-07-30T12:51:07;94405.06;;;36.62;31.13
6464;BME280;3265;42.694;23.282;2022-07-30T12:53:35;94396.13;;;36.44;31.14
6464;BME280;3265;42.694;23.282;2022-07-30T12:56:11;94392.25;;;36.49;31.67
6464;BME280;3265;42.694;23.282;2022-07-30T12:58:39;94380.25;;;36.67;32.00
6464;BME280;3265;42.694;23.282;2022-07-30T13:01:06;94384.44;;;36.96;31.26
6464;BME280;3265;42.694;23.282;2022-07-30T13:03:33;94378.31;;;36.71;30.65
6464;BME280;3265;42.694;23.282;2022-07-30T13:06:16;94383.38;;;36.34;31.49
6464;BME280;3265;42.694;23.282;2022-07-30T13:08:45;94374.84;;;35.90;31.24
6464;BME280;3265;42.694;23.282;2022-07-30T13:11:12;94375.16;;;35.60;32.06
6464;BME280;3265;42.694;23.282;2022-07-30T13:13:39;94366.63;;;35.44;32.22
6464;BME280;3265;42.694;23.282;2022-07-30T13:16:06;94353.81;;;35.30;32.80
6464;BME280;3265;42.694;23.282;2022-07-30T13:18:34;94339.94;;;35.39;33.19
6464;BME280;3265;42.694;23.282;2022-07-30T13:21:03;94356.56;;;35.48;32.84
6464;BME280;3265;42.694;23.282;2022-07-30T13:23:32;94352.66;;;35.31;33.00